Ana Sayfa
METAR-TAF:

METAR-TAF

Havaalanları :

Elâzığ Havalimanı

Elâzığ, Türkiye

Enlem: 38-36N, Boylam: 039-17E, yükseklik: 902 m

Güncel hava durumu gözlemi

Rapor saat 06:50 UTC de 43 dakika önce yapıldı.
Rüzgar değişken yönden 2 kt
Sıcaklık 17°C
Nem 72%
Basınç 1021 hPa
Görüş mesafesi 10 km veya daha fazla
3500 ft yükseklikte parçalı bulutlu
10000 ft yükseklikte parçalı çok bulutlu

METAR: LTCA 220650Z VRB02KT 9999 SCT035 BKN100 17/12 Q1021 NOSIG

Saat: 10:33 (07:33 UTC)

Tahmin

Rapor saat 04:40 UTC de 2 saat ve 53 dakika önce yapıldı.
Ayın 22'si saat 06 UTC'den ayın 22'si saat 15 UTC'ye kadar geçerli Tahmin
Rüzgar değişken yönden 2 kt
Görüş mesafesi 10 km veya daha fazla
3500 ft yükseklikte parçalı bulutlu
10000 ft yükseklikte parçalı çok bulutlu

TAF: LTCA 220440Z 2206/2215 VRB02KT 9999 SCT035 BKN100

4.000'den fazla havaalanı için hava durumu gözlemleri ve tahminleri (METAR ve TAF raporları).

Kullanılabilir istasyonlar harita üzerinde sarı ve kırmızı noktalarla gösterilir.

İstasyonun adını görmek için fareyi noktanın üzerinde gezdirin.

Sonrasında hava gözlem ve tahminlerini görmek için tıklayın.

Haritayı değiştirmek için: yaklaştırmak için siyah artı işaretli yeşil düğmeye ve uzaklaştırmak için de eksi işaretli düğmeye hızla tıklayın; bitişik haritalar için yeşil okları kullanın.


METAR-TAF: